sensor_id;sensor_type;location;lat;lon;timestamp;pressure;altitude;pressure_sealevel;temperature;humidity
9077;BME280;4574;51.072;17.174;2023-08-07T00:00:38;98844.47;;;15.21;100.00
9077;BME280;4574;51.072;17.174;2023-08-07T00:03:06;98853.25;;;15.21;100.00
9077;BME280;4574;51.072;17.174;2023-08-07T00:05:35;98846.53;;;15.19;100.00
9077;BME280;4574;51.072;17.174;2023-08-07T00:08:05;98850.59;;;15.21;100.00
9077;BME280;4574;51.072;17.174;2023-08-07T00:10:33;98847.13;;;15.21;100.00
9077;BME280;4574;51.072;17.174;2023-08-07T00:13:02;98853.50;;;15.20;100.00
9077;BME280;4574;51.072;17.174;2023-08-07T00:15:31;98855.31;;;15.19;100.00
9077;BME280;4574;51.072;17.174;2023-08-07T00:18:00;98855.31;;;15.19;100.00
9077;BME280;4574;51.072;17.174;2023-08-07T00:20:29;98847.53;;;15.18;100.00
9077;BME280;4574;51.072;17.174;2023-08-07T00:22:57;98853.06;;;15.16;100.00
9077;BME280;4574;51.072;17.174;2023-08-07T00:25:27;98855.13;;;15.14;100.00
9077;BME280;4574;51.072;17.174;2023-08-07T00:27:55;98861.91;;;15.17;100.00
9077;BME280;4574;51.072;17.174;2023-08-07T00:30:24;98861.06;;;15.16;100.00
9077;BME280;4574;51.072;17.174;2023-08-07T00:32:52;98853.91;;;15.17;100.00
9077;BME280;4574;51.072;17.174;2023-08-07T00:35:22;98858.03;;;15.13;100.00
9077;BME280;4574;51.072;17.174;2023-08-07T00:37:50;98858.63;;;15.15;100.00
9077;BME280;4574;51.072;17.174;2023-08-07T00:40:18;98855.13;;;15.14;100.00
9077;BME280;4574;51.072;17.174;2023-08-07T00:42:48;98848.16;;;15.13;100.00
9077;BME280;4574;51.072;17.174;2023-08-07T00:45:17;98849.00;;;15.14;100.00
9077;BME280;4574;51.072;17.174;2023-08-07T00:47:45;98846.53;;;15.12;100.00
9077;BME280;4574;51.072;17.174;2023-08-07T00:50:14;98847.13;;;15.14;100.00
9077;BME280;4574;51.072;17.174;2023-08-07T00:52:43;98844.47;;;15.14;100.00
9077;BME280;4574;51.072;17.174;2023-08-07T00:55:11;98843.66;;;15.14;100.00
9077;BME280;4574;51.072;17.174;2023-08-07T00:57:40;98836.69;;;15.13;100.00
9077;BME280;4574;51.072;17.174;2023-08-07T01:00:12;98835.66;;;15.14;100.00
9077;BME280;4574;51.072;17.174;2023-08-07T01:02:41;98840.78;;;15.15;100.00
9077;BME280;4574;51.072;17.174;2023-08-07T01:05:11;98836.28;;;15.16;100.00
9077;BME280;4574;51.072;17.174;2023-08-07T01:07:39;98830.13;;;15.15;100.00
9077;BME280;4574;51.072;17.174;2023-08-07T01:10:08;98834.41;;;15.16;100.00
9077;BME280;4574;51.072;17.174;2023-08-07T01:12:44;98841.59;;;15.16;100.00
9077;BME280;4574;51.072;17.174;2023-08-07T01:15:21;98829.31;;;15.15;100.00
9077;BME280;4574;51.072;17.174;2023-08-07T01:17:52;98830.53;;;15.12;100.00
9077;BME280;4574;51.072;17.174;2023-08-07T01:20:22;98833.81;;;15.14;100.00
9077;BME280;4574;51.072;17.174;2023-08-07T01:22:52;98833.00;;;15.14;100.00
9077;BME280;4574;51.072;17.174;2023-08-07T01:25:21;98844.88;;;15.11;100.00
9077;BME280;4574;51.072;17.174;2023-08-07T01:27:54;98833.63;;;15.09;100.00
9077;BME280;4574;51.072;17.174;2023-08-07T01:30:28;98827.25;;;15.10;100.00
9077;BME280;4574;51.072;17.174;2023-08-07T01:33:04;98830.94;;;15.09;100.00
9077;BME280;4574;51.072;17.174;2023-08-07T01:35:39;98822.16;;;15.09;100.00
9077;BME280;4574;51.072;17.174;2023-08-07T01:38:11;98822.75;;;15.04;100.00
9077;BME280;4574;51.072;17.174;2023-08-07T01:40:42;98830.94;;;15.09;100.00
9077;BME280;4574;51.072;17.174;2023-08-07T01:43:11;98827.25;;;15.10;100.00
9077;BME280;4574;51.072;17.174;2023-08-07T01:45:39;98832.81;;;15.09;100.00
9077;BME280;4574;51.072;17.174;2023-08-07T01:48:08;98828.28;;;15.09;100.00
9077;BME280;4574;51.072;17.174;2023-08-07T01:50:37;98835.06;;;15.05;100.00
9077;BME280;4574;51.072;17.174;2023-08-07T01:53:06;98841.22;;;15.06;100.00
9077;BME280;4574;51.072;17.174;2023-08-07T01:55:36;98839.59;;;15.05;100.00
9077;BME280;4574;51.072;17.174;2023-08-07T01:58:04;98835.06;;;15.05;100.00
9077;BME280;4574;51.072;17.174;2023-08-07T02:00:33;98836.09;;;15.04;100.00
9077;BME280;4574;51.072;17.174;2023-08-07T02:03:01;98832.81;;;15.02;100.00
9077;BME280;4574;51.072;17.174;2023-08-07T02:05:30;98830.38;;;15.01;100.00
9077;BME280;4574;51.072;17.174;2023-08-07T02:07:58;98830.56;;;14.99;100.00
9077;BME280;4574;51.072;17.174;2023-08-07T02:10:27;98832.19;;;15.00;100.00
9077;BME280;4574;51.072;17.174;2023-08-07T02:12:58;98834.88;;;15.00;100.00
9077;BME280;4574;51.072;17.174;2023-08-07T02:15:27;98835.47;;;15.02;100.00
9077;BME280;4574;51.072;17.174;2023-08-07T02:17:55;98830.16;;;15.02;100.00
9077;BME280;4574;51.072;17.174;2023-08-07T02:20:24;98821.53;;;15.00;100.00
9077;BME280;4574;51.072;17.174;2023-08-07T02:22:53;98821.53;;;15.00;100.00
9077;BME280;4574;51.072;17.174;2023-08-07T02:25:21;98823.19;;;15.01;100.00
9077;BME280;4574;51.072;17.174;2023-08-07T02:27:50;98830.38;;;15.01;100.00
9077;BME280;4574;51.072;17.174;2023-08-07T02:30:20;98827.91;;;14.99;100.00
9077;BME280;4574;51.072;17.174;2023-08-07T02:32:48;98830.97;;;14.96;100.00
9077;BME280;4574;51.072;17.174;2023-08-07T02:35:17;98830.56;;;14.99;100.00
9077;BME280;4574;51.072;17.174;2023-08-07T02:37:45;98835.09;;;14.99;100.00
9077;BME280;4574;51.072;17.174;2023-08-07T02:40:14;98831.41;;;14.93;100.00
9077;BME280;4574;51.072;17.174;2023-08-07T02:42:45;98836.31;;;14.96;100.00
9077;BME280;4574;51.072;17.174;2023-08-07T02:45:14;98830.97;;;14.96;100.00
9077;BME280;4574;51.072;17.174;2023-08-07T02:47:44;98836.31;;;14.96;100.00
9077;BME280;4574;51.072;17.174;2023-08-07T02:50:13;98837.94;;;14.97;100.00
9077;BME280;4574;51.072;17.174;2023-08-07T02:52:41;98834.25;;;14.98;100.00
9077;BME280;4574;51.072;17.174;2023-08-07T02:55:11;98837.53;;;15.00;100.00
9077;BME280;4574;51.072;17.174;2023-08-07T02:57:40;98840.41;;;14.99;100.00
9077;BME280;4574;51.072;17.174;2023-08-07T03:00:09;98838.56;;;14.99;100.00
9077;BME280;4574;51.072;17.174;2023-08-07T03:02:38;98834.47;;;14.97;100.00
9077;BME280;4574;51.072;17.174;2023-08-07T03:05:08;98842.66;;;15.02;100.00
9077;BME280;4574;51.072;17.174;2023-08-07T03:07:37;98846.97;;;15.03;100.00
9077;BME280;4574;51.072;17.174;2023-08-07T03:10:06;98846.13;;;15.02;100.00
9077;BME280;4574;51.072;17.174;2023-08-07T03:12:35;98850.44;;;15.03;100.00
9077;BME280;4574;51.072;17.174;2023-08-07T03:15:06;98857.22;;;15.06;100.00
9077;BME280;4574;51.072;17.174;2023-08-07T03:17:35;98858.03;;;15.00;100.00
9077;BME280;4574;51.072;17.174;2023-08-07T03:20:04;98858.84;;;15.07;100.00
9077;BME280;4574;51.072;17.174;2023-08-07T03:22:34;98854.31;;;15.07;100.00
9077;BME280;4574;51.072;17.174;2023-08-07T03:25:03;98859.88;;;15.06;100.00
9077;BME280;4574;51.072;17.174;2023-08-07T03:27:32;98855.34;;;15.06;100.00
9077;BME280;4574;51.072;17.174;2023-08-07T03:30:01;98862.13;;;15.09;100.00
9077;BME280;4574;51.072;17.174;2023-08-07T03:32:29;98851.66;;;15.07;100.00
9077;BME280;4574;51.072;17.174;2023-08-07T03:35:01;98859.66;;;15.07;100.00
9077;BME280;4574;51.072;17.174;2023-08-07T03:37:31;98869.72;;;15.12;100.00
9077;BME280;4574;51.072;17.174;2023-08-07T03:40:01;98866.81;;;15.13;100.00
9077;BME280;4574;51.072;17.174;2023-08-07T03:42:30;98869.47;;;15.13;100.00
9077;BME280;4574;51.072;17.174;2023-08-07T03:44:58;98870.72;;;15.17;100.00
9077;BME280;4574;51.072;17.174;2023-08-07T03:47:27;98874.19;;;15.18;100.00
9077;BME280;4574;51.072;17.174;2023-08-07T03:49:55;98879.94;;;15.21;100.00
9077;BME280;4574;51.072;17.174;2023-08-07T03:52:23;98875.63;;;15.20;100.00
9077;BME280;4574;51.072;17.174;2023-08-07T03:54:52;98883.44;;;15.22;100.00
9077;BME280;4574;51.072;17.174;2023-08-07T03:57:22;98878.47;;;15.25;100.00
9077;BME280;4574;51.072;17.174;2023-08-07T03:59:50;98884.03;;;15.24;100.00
9077;BME280;4574;51.072;17.174;2023-08-07T04:02:19;98883.00;;;15.25;100.00
9077;BME280;4574;51.072;17.174;2023-08-07T04:04:47;98877.25;;;15.21;100.00
9077;BME280;4574;51.072;17.174;2023-08-07T04:07:16;98885.06;;;15.29;100.00
9077;BME280;4574;51.072;17.174;2023-08-07T04:09:44;98889.41;;;15.30;100.00
9077;BME280;4574;51.072;17.174;2023-08-07T04:12:13;98886.50;;;15.32;100.00
9077;BME280;4574;51.072;17.174;2023-08-07T04:14:43;98883.03;;;15.31;100.00
9077;BME280;4574;51.072;17.174;2023-08-07T04:17:11;98898.63;;;15.34;100.00
9077;BME280;4574;51.072;17.174;2023-08-07T04:19:40;98900.25;;;15.35;100.00
9077;BME280;4574;51.072;17.174;2023-08-07T04:22:08;98900.03;;;15.37;100.00
9077;BME280;4574;51.072;17.174;2023-08-07T04:24:37;98902.50;;;15.38;100.00
9077;BME280;4574;51.072;17.174;2023-08-07T04:27:05;98905.19;;;15.38;100.00
9077;BME280;4574;51.072;17.174;2023-08-07T04:29:35;98903.13;;;15.40;100.00
9077;BME280;4574;51.072;17.174;2023-08-07T04:32:06;98905.56;;;15.42;100.00
9077;BME280;4574;51.072;17.174;2023-08-07T04:34:34;98901.47;;;15.39;100.00
9077;BME280;4574;51.072;17.174;2023-08-07T04:37:03;98899.84;;;15.38;100.00
9077;BME280;4574;51.072;17.174;2023-08-07T04:39:34;98907.19;;;15.43;100.00
9077;BME280;4574;51.072;17.174;2023-08-07T04:42:04;98912.94;;;15.46;100.00
9077;BME280;4574;51.072;17.174;2023-08-07T04:44:33;98910.28;;;15.46;100.00
9077;BME280;4574;51.072;17.174;2023-08-07T04:47:02;98916.41;;;15.47;100.00
9077;BME280;4574;51.072;17.174;2023-08-07T04:49:32;98912.34;;;15.44;100.00
9077;BME280;4574;51.072;17.174;2023-08-07T04:52:00;98904.34;;;15.44;100.00
9077;BME280;4574;51.072;17.174;2023-08-07T04:54:42;98907.19;;;15.43;100.00
9077;BME280;4574;51.072;17.174;2023-08-07T04:57:11;98908.88;;;15.37;100.00
9077;BME280;4574;51.072;17.174;2023-08-07T04:59:39;98912.75;;;15.28;100.00
9077;BME280;4574;51.072;17.174;2023-08-07T05:02:07;98906.16;;;15.24;100.00
9077;BME280;4574;51.072;17.174;2023-08-07T05:04:37;98905.97;;;15.26;100.00
9077;BME280;4574;51.072;17.174;2023-08-07T05:07:06;98904.94;;;15.20;100.00
9077;BME280;4574;51.072;17.174;2023-08-07T05:09:34;98907.59;;;15.20;100.00
9077;BME280;4574;51.072;17.174;2023-08-07T05:12:04;98906.38;;;15.23;100.00
9077;BME280;4574;51.072;17.174;2023-08-07T05:14:33;98900.44;;;15.21;100.00
9077;BME280;4574;51.072;17.174;2023-08-07T05:17:02;98911.31;;;15.26;100.00
9077;BME280;4574;51.072;17.174;2023-08-07T05:19:30;98925.66;;;15.25;100.00
9077;BME280;4574;51.072;17.174;2023-08-07T05:22:00;98932.44;;;15.27;100.00
9077;BME280;4574;51.072;17.174;2023-08-07T05:24:28;98925.06;;;15.23;100.00
9077;BME280;4574;51.072;17.174;2023-08-07T05:27:02;98939.00;;;15.25;100.00
9077;BME280;4574;51.072;17.174;2023-08-07T05:29:30;98930.56;;;15.21;100.00
9077;BME280;4574;51.072;17.174;2023-08-07T05:31:59;98926.06;;;15.15;100.00
9077;BME280;4574;51.072;17.174;2023-08-07T05:34:27;98938.16;;;15.24;100.00
9077;BME280;4574;51.072;17.174;2023-08-07T05:36:56;98938.56;;;15.21;100.00
9077;BME280;4574;51.072;17.174;2023-08-07T05:39:26;98943.31;;;15.26;100.00
9077;BME280;4574;51.072;17.174;2023-08-07T05:41:55;98934.47;;;15.25;100.00
9077;BME280;4574;51.072;17.174;2023-08-07T05:44:24;98945.41;;;15.30;100.00
9077;BME280;4574;51.072;17.174;2023-08-07T05:46:53;98946.63;;;15.34;100.00
9077;BME280;4574;51.072;17.174;2023-08-07T05:49:21;98947.00;;;15.38;100.00
9077;BME280;4574;51.072;17.174;2023-08-07T05:51:52;98943.72;;;15.36;100.00
9077;BME280;4574;51.072;17.174;2023-08-07T05:54:21;98947.84;;;15.38;100.00
9077;BME280;4574;51.072;17.174;2023-08-07T05:56:51;98946.59;;;15.41;100.00
9077;BME280;4574;51.072;17.174;2023-08-07T05:59:19;98959.72;;;15.42;100.00
9077;BME280;4574;51.072;17.174;2023-08-07T06:01:49;98951.31;;;15.39;100.00
9077;BME280;4574;51.072;17.174;2023-08-07T06:04:18;98962.59;;;15.47;100.00
9077;BME280;4574;51.072;17.174;2023-08-07T06:06:47;98964.22;;;15.48;100.00
9077;BME280;4574;51.072;17.174;2023-08-07T06:09:15;98967.50;;;15.50;100.00
9077;BME280;4574;51.072;17.174;2023-08-07T06:11:44;98965.47;;;15.52;100.00
9077;BME280;4574;51.072;17.174;2023-08-07T06:14:14;98960.50;;;15.56;100.00
9077;BME280;4574;51.072;17.174;2023-08-07T06:16:43;98963.41;;;15.54;100.00
9077;BME280;4574;51.072;17.174;2023-08-07T06:19:12;98973.03;;;15.55;100.00
9077;BME280;4574;51.072;17.174;2023-08-07T06:21:55;98978.56;;;15.54;100.00
9077;BME280;4574;51.072;17.174;2023-08-07T06:24:24;98989.66;;;15.57;100.00
9077;BME280;4574;51.072;17.174;2023-08-07T06:26:53;98988.63;;;15.58;100.00
9077;BME280;4574;51.072;17.174;2023-08-07T06:29:23;98993.34;;;15.56;100.00
9077;BME280;4574;51.072;17.174;2023-08-07T06:31:51;98999.06;;;15.60;100.00
9077;BME280;4574;51.072;17.174;2023-08-07T06:34:20;98999.91;;;15.60;100.00
9077;BME280;4574;51.072;17.174;2023-08-07T06:36:49;98996.22;;;15.61;100.00
9077;BME280;4574;51.072;17.174;2023-08-07T06:39:18;99004.41;;;15.60;100.00
9077;BME280;4574;51.072;17.174;2023-08-07T06:41:46;99011.19;;;15.56;100.00
9077;BME280;4574;51.072;17.174;2023-08-07T06:44:15;99013.84;;;15.56;100.00
9077;BME280;4574;51.072;17.174;2023-08-07T06:46:45;99018.38;;;15.55;100.00
9077;BME280;4574;51.072;17.174;2023-08-07T06:49:13;99012.00;;;15.50;100.00
9077;BME280;4574;51.072;17.174;2023-08-07T06:51:42;99021.47;;;15.52;100.00
9077;BME280;4574;51.072;17.174;2023-08-07T06:54:11;99019.41;;;15.54;100.00
9077;BME280;4574;51.072;17.174;2023-08-07T06:56:39;99012.44;;;15.53;100.00
9077;BME280;4574;51.072;17.174;2023-08-07T06:59:09;99024.75;;;15.54;100.00
9077;BME280;4574;51.072;17.174;2023-08-07T07:01:37;99025.38;;;15.56;100.00
9077;BME280;4574;51.072;17.174;2023-08-07T07:04:07;99022.06;;;15.61;100.00
9077;BME280;4574;51.072;17.174;2023-08-07T07:06:37;99024.13;;;15.65;100.00
9077;BME280;4574;51.072;17.174;2023-08-07T07:09:05;99020.84;;;15.63;100.00
9077;BME280;4574;51.072;17.174;2023-08-07T07:11:34;99034.38;;;15.68;100.00
9077;BME280;4574;51.072;17.174;2023-08-07T07:14:03;99038.69;;;15.69;100.00
9077;BME280;4574;51.072;17.174;2023-08-07T07:16:31;99038.69;;;15.69;100.00
9077;BME280;4574;51.072;17.174;2023-08-07T07:19:00;99032.31;;;15.70;100.00
9077;BME280;4574;51.072;17.174;2023-08-07T07:21:30;99041.75;;;15.73;100.00
9077;BME280;4574;51.072;17.174;2023-08-07T07:23:58;99044.22;;;15.68;100.00
9077;BME280;4574;51.072;17.174;2023-08-07T07:26:27;99040.91;;;15.85;100.00
9077;BME280;4574;51.072;17.174;2023-08-07T07:28:55;99043.78;;;15.90;100.00
9077;BME280;4574;51.072;17.174;2023-08-07T07:31:24;99037.81;;;15.88;100.00
9077;BME280;4574;51.072;17.174;2023-08-07T07:33:53;99041.53;;;15.87;100.00
9077;BME280;4574;51.072;17.174;2023-08-07T07:36:21;99039.03;;;15.86;100.00
9077;BME280;4574;51.072;17.174;2023-08-07T07:38:51;99046.63;;;15.89;100.00
9077;BME280;4574;51.072;17.174;2023-08-07T07:41:21;99043.34;;;15.93;100.00
9077;BME280;4574;51.072;17.174;2023-08-07T07:43:50;99050.34;;;15.94;100.00
9077;BME280;4574;51.072;17.174;2023-08-07T07:46:20;99047.03;;;15.99;100.00
9077;BME280;4574;51.072;17.174;2023-08-07T07:48:49;99052.78;;;16.02;100.00
9077;BME280;4574;51.072;17.174;2023-08-07T07:51:17;99050.28;;;16.07;100.00
9077;BME280;4574;51.072;17.174;2023-08-07T07:53:46;99054.81;;;16.13;100.00
9077;BME280;4574;51.072;17.174;2023-08-07T07:56:37;99051.09;;;16.20;100.00
9077;BME280;4574;51.072;17.174;2023-08-07T07:59:06;99058.63;;;16.30;100.00
9077;BME280;4574;51.072;17.174;2023-08-07T08:01:35;99063.78;;;16.38;100.00
9077;BME280;4574;51.072;17.174;2023-08-07T08:04:04;99055.94;;;16.43;100.00
9077;BME280;4574;51.072;17.174;2023-08-07T08:06:33;99056.13;;;16.48;100.00
9077;BME280;4574;51.072;17.174;2023-08-07T08:09:02;99058.56;;;16.56;100.00
9077;BME280;4574;51.072;17.174;2023-08-07T08:11:31;99055.03;;;16.62;100.00
9077;BME280;4574;51.072;17.174;2023-08-07T08:14:01;99058.69;;;16.74;100.00
9077;BME280;4574;51.072;17.174;2023-08-07T08:16:30;99061.50;;;16.85;100.00
9077;BME280;4574;51.072;17.174;2023-08-07T08:18:58;99075.41;;;16.94;100.00
9077;BME280;4574;51.072;17.174;2023-08-07T08:21:27;99063.69;;;16.95;100.00
9077;BME280;4574;51.072;17.174;2023-08-07T08:23:57;99073.72;;;17.06;100.00
9077;BME280;4574;51.072;17.174;2023-08-07T08:26:26;99077.38;;;17.11;100.00
9077;BME280;4574;51.072;17.174;2023-08-07T08:28:54;99069.94;;;17.20;100.00
9077;BME280;4574;51.072;17.174;2023-08-07T08:31:24;99073.81;;;17.24;100.00
9077;BME280;4574;51.072;17.174;2023-08-07T08:33:53;99084.63;;;17.42;100.00
9077;BME280;4574;51.072;17.174;2023-08-07T08:36:21;99085.38;;;17.49;100.00
9077;BME280;4574;51.072;17.174;2023-08-07T08:38:50;99082.88;;;17.53;100.00
9077;BME280;4574;51.072;17.174;2023-08-07T08:41:19;99076.25;;;17.56;100.00
9077;BME280;4574;51.072;17.174;2023-08-07T08:43:49;99083.69;;;17.54;100.00
9077;BME280;4574;51.072;17.174;2023-08-07T08:46:20;99088.38;;;17.58;100.00
9077;BME280;4574;51.072;17.174;2023-08-07T08:48:56;99081.16;;;17.59;100.00
9077;BME280;4574;51.072;17.174;2023-08-07T08:51:26;99082.00;;;17.59;100.00
9077;BME280;4574;51.072;17.174;2023-08-07T08:53:54;99088.38;;;17.58;100.00
9077;BME280;4574;51.072;17.174;2023-08-07T08:56:24;99097.63;;;17.62;100.00
9077;BME280;4574;51.072;17.174;2023-08-07T08:58:52;99090.88;;;17.78;100.00
9077;BME280;4574;51.072;17.174;2023-08-07T09:01:21;99093.81;;;17.94;100.00
9077;BME280;4574;51.072;17.174;2023-08-07T09:03:55;99097.25;;;18.01;100.00
9077;BME280;4574;51.072;17.174;2023-08-07T09:06:25;99096.50;;;17.94;100.00
9077;BME280;4574;51.072;17.174;2023-08-07T09:08:57;99097.38;;;17.88;100.00
9077;BME280;4574;51.072;17.174;2023-08-07T09:11:28;99104.81;;;17.86;100.00
9077;BME280;4574;51.072;17.174;2023-08-07T09:13:57;99112.69;;;17.81;100.00
9077;BME280;4574;51.072;17.174;2023-08-07T09:16:28;99108.09;;;17.88;100.00
9077;BME280;4574;51.072;17.174;2023-08-07T09:18:59;99115.03;;;17.96;100.00
9077;BME280;4574;51.072;17.174;2023-08-07T09:21:31;99108.56;;;18.03;100.00
9077;BME280;4574;51.072;17.174;2023-08-07T09:24:02;99113.75;;;18.23;100.00
9077;BME280;4574;51.072;17.174;2023-08-07T09:26:32;99114.72;;;18.46;100.00
9077;BME280;4574;51.072;17.174;2023-08-07T09:29:01;99114.53;;;18.66;100.00
9077;BME280;4574;51.072;17.174;2023-08-07T09:31:30;99112.19;;;18.69;100.00
9077;BME280;4574;51.072;17.174;2023-08-07T09:34:02;99111.16;;;18.70;100.00
9077;BME280;4574;51.072;17.174;2023-08-07T09:36:34;99122.41;;;18.79;100.00
9077;BME280;4574;51.072;17.174;2023-08-07T09:39:03;99110.03;;;18.78;100.00
9077;BME280;4574;51.072;17.174;2023-08-07T09:41:32;99113.03;;;18.70;100.00
9077;BME280;4574;51.072;17.174;2023-08-07T09:44:06;99111.44;;;18.62;100.00
9077;BME280;4574;51.072;17.174;2023-08-07T09:46:41;99123.00;;;18.63;100.00
9077;BME280;4574;51.072;17.174;2023-08-07T09:49:11;99117.25;;;18.59;100.00
9077;BME280;4574;51.072;17.174;2023-08-07T09:51:43;99121.28;;;18.86;100.00
9077;BME280;4574;51.072;17.174;2023-08-07T09:54:12;99123.13;;;18.86;100.00
9077;BME280;4574;51.072;17.174;2023-08-07T09:56:41;99125.44;;;19.00;100.00
9077;BME280;4574;51.072;17.174;2023-08-07T09:59:09;99124.22;;;19.14;100.00
9077;BME280;4574;51.072;17.174;2023-08-07T10:01:38;99125.50;;;19.41;100.00
9077;BME280;4574;51.072;17.174;2023-08-07T10:04:11;99116.25;;;19.37;100.00
9077;BME280;4574;51.072;17.174;2023-08-07T10:06:43;99130.53;;;19.49;100.00
9077;BME280;4574;51.072;17.174;2023-08-07T10:09:12;99141.47;;;19.36;100.00
9077;BME280;4574;51.072;17.174;2023-08-07T10:11:41;99146.47;;;19.32;100.00
9077;BME280;4574;51.072;17.174;2023-08-07T10:14:11;99137.94;;;19.35;100.00
9077;BME280;4574;51.072;17.174;2023-08-07T10:16:40;99140.94;;;19.57;100.00
9077;BME280;4574;51.072;17.174;2023-08-07T10:19:11;99140.25;;;19.73;100.00
9077;BME280;4574;51.072;17.174;2023-08-07T10:21:40;99146.00;;;19.88;100.00
9077;BME280;4574;51.072;17.174;2023-08-07T10:24:10;99131.34;;;20.02;100.00
9077;BME280;4574;51.072;17.174;2023-08-07T10:26:41;99124.06;;;19.79;100.00
9077;BME280;4574;51.072;17.174;2023-08-07T10:29:16;99148.44;;;19.78;100.00
9077;BME280;4574;51.072;17.174;2023-08-07T10:31:47;99151.97;;;19.78;100.00
9077;BME280;4574;51.072;17.174;2023-08-07T10:34:18;99150.44;;;19.94;100.00
9077;BME280;4574;51.072;17.174;2023-08-07T10:36:47;99148.63;;;20.06;100.00
9077;BME280;4574;51.072;17.174;2023-08-07T10:39:15;99146.88;;;20.23;100.00
9077;BME280;4574;51.072;17.174;2023-08-07T10:41:45;99148.41;;;20.41;99.78
9077;BME280;4574;51.072;17.174;2023-08-07T10:44:18;99144.91;;;20.52;99.62
9077;BME280;4574;51.072;17.174;2023-08-07T10:46:48;99150.97;;;20.59;97.73
9077;BME280;4574;51.072;17.174;2023-08-07T10:49:35;99143.81;;;20.65;94.54
9077;BME280;4574;51.072;17.174;2023-08-07T10:52:14;99144.00;;;20.75;94.64
9077;BME280;4574;51.072;17.174;2023-08-07T10:54:46;99143.44;;;20.84;94.28
9077;BME280;4574;51.072;17.174;2023-08-07T10:57:16;99147.06;;;20.78;93.76
9077;BME280;4574;51.072;17.174;2023-08-07T10:59:49;99144.75;;;20.59;94.86
9077;BME280;4574;51.072;17.174;2023-08-07T11:02:23;99144.28;;;20.73;96.52
9077;BME280;4574;51.072;17.174;2023-08-07T11:04:55;99144.63;;;20.88;92.95
9077;BME280;4574;51.072;17.174;2023-08-07T11:07:25;99142.69;;;21.00;94.06
9077;BME280;4574;51.072;17.174;2023-08-07T11:09:54;99128.69;;;21.15;93.91
9077;BME280;4574;51.072;17.174;2023-08-07T11:12:24;99123.28;;;21.26;92.95
9077;BME280;4574;51.072;17.174;2023-08-07T11:14:54;99136.03;;;21.31;94.13
9077;BME280;4574;51.072;17.174;2023-08-07T11:17:24;99129.06;;;21.18;94.05
9077;BME280;4574;51.072;17.174;2023-08-07T11:19:55;99131.59;;;20.97;92.62
9077;BME280;4574;51.072;17.174;2023-08-07T11:22:24;99135.59;;;20.83;94.38
9077;BME280;4574;51.072;17.174;2023-08-07T11:24:53;99125.03;;;20.53;96.16
9077;BME280;4574;51.072;17.174;2023-08-07T11:27:22;99142.66;;;20.27;94.83
9077;BME280;4574;51.072;17.174;2023-08-07T11:29:50;99142.91;;;20.36;96.44
9077;BME280;4574;51.072;17.174;2023-08-07T11:32:20;99145.25;;;20.33;97.56
9077;BME280;4574;51.072;17.174;2023-08-07T11:34:50;99147.81;;;20.28;98.11
9077;BME280;4574;51.072;17.174;2023-08-07T11:37:20;99154.47;;;20.26;98.82
9077;BME280;4574;51.072;17.174;2023-08-07T11:39:48;99161.47;;;20.27;100.00
9077;BME280;4574;51.072;17.174;2023-08-07T11:42:17;99169.84;;;19.96;100.00
9077;BME280;4574;51.072;17.174;2023-08-07T11:44:45;99162.59;;;19.85;100.00
9077;BME280;4574;51.072;17.174;2023-08-07T11:47:15;99163.72;;;19.66;100.00
9077;BME280;4574;51.072;17.174;2023-08-07T11:49:45;99156.50;;;19.66;100.00
9077;BME280;4574;51.072;17.174;2023-08-07T11:52:15;99162.59;;;19.85;100.00
9077;BME280;4574;51.072;17.174;2023-08-07T11:54:47;99163.81;;;20.12;100.00
9077;BME280;4574;51.072;17.174;2023-08-07T11:57:17;99169.19;;;20.34;100.00
9077;BME280;4574;51.072;17.174;2023-08-07T11:59:51;99169.19;;;20.34;100.00
9077;BME280;4574;51.072;17.174;2023-08-07T12:02:24;99184.41;;;20.40;100.00
9077;BME280;4574;51.072;17.174;2023-08-07T12:04:58;99190.47;;;20.59;100.00
9077;BME280;4574;51.072;17.174;2023-08-07T12:07:27;99180.16;;;20.90;98.67
9077;BME280;4574;51.072;17.174;2023-08-07T12:10:02;99189.28;;;20.89;96.62
9077;BME280;4574;51.072;17.174;2023-08-07T12:12:33;99190.94;;;20.67;94.66
9077;BME280;4574;51.072;17.174;2023-08-07T12:15:01;99190.81;;;20.62;96.94
9077;BME280;4574;51.072;17.174;2023-08-07T12:17:32;99189.66;;;20.47;96.31
9077;BME280;4574;51.072;17.174;2023-08-07T12:20:00;99190.50;;;20.47;98.34
9077;BME280;4574;51.072;17.174;2023-08-07T12:22:31;99204.88;;;20.41;98.57
9077;BME280;4574;51.072;17.174;2023-08-07T12:25:01;99206.72;;;20.29;99.81
9077;BME280;4574;51.072;17.174;2023-08-07T12:27:30;99217.28;;;19.90;100.00
9077;BME280;4574;51.072;17.174;2023-08-07T12:29:58;99224.50;;;19.78;100.00
9077;BME280;4574;51.072;17.174;2023-08-07T12:32:27;99225.03;;;19.69;100.00
9077;BME280;4574;51.072;17.174;2023-08-07T12:34:55;99228.63;;;19.63;100.00
9077;BME280;4574;51.072;17.174;2023-08-07T12:37:27;99230.44;;;19.51;100.00
9077;BME280;4574;51.072;17.174;2023-08-07T12:39:55;99226.19;;;19.61;100.00
9077;BME280;4574;51.072;17.174;2023-08-07T12:42:45;99230.22;;;19.52;100.00
9077;BME280;4574;51.072;17.174;2023-08-07T12:45:15;99236.53;;;19.58;100.00
9077;BME280;4574;51.072;17.174;2023-08-07T12:48:05;99237.72;;;19.62;100.00
9077;BME280;4574;51.072;17.174;2023-08-07T12:50:34;99239.56;;;19.91;100.00
9077;BME280;4574;51.072;17.174;2023-08-07T12:53:03;99242.09;;;20.04;100.00
9077;BME280;4574;51.072;17.174;2023-08-07T12:55:31;99247.16;;;19.94;100.00
9077;BME280;4574;51.072;17.174;2023-08-07T12:58:01;99252.91;;;19.97;100.00
9077;BME280;4574;51.072;17.174;2023-08-07T13:00:30;99248.97;;;20.00;100.00
9077;BME280;4574;51.072;17.174;2023-08-07T13:02:59;99265.59;;;20.08;100.00
9077;BME280;4574;51.072;17.174;2023-08-07T13:05:28;99257.63;;;20.02;100.00
9077;BME280;4574;51.072;17.174;2023-08-07T13:07:58;99263.13;;;20.07;100.00
9077;BME280;4574;51.072;17.174;2023-08-07T13:10:26;99268.88;;;20.22;100.00
9077;BME280;4574;51.072;17.174;2023-08-07T13:12:58;99272.34;;;20.11;99.81
9077;BME280;4574;51.072;17.174;2023-08-07T13:15:30;99261.72;;;20.16;100.00